Accueil
METAR-TAF:

METAR-TAF

Aéroports :

Fort Richardson, Alaska, États-Unis

latitude: 61-15-45N, longitude: 149-39-17W, altitude: 115 m

Observation

Le bulletin a été fait il y a 1 heure et 5 minutes, à 20:58 UTC
Vent 12 kt de est/nord-est avec des rafales jusqu'à 19 kt
Température 8°C
Humidité 49%
Pression 1006 hPa
Visibilité: 16.1 km
Nuages fragmentés à une hauteur de 15000 ft
Nuages fragmentés à une hauteur de 17000 ft

METAR: PAFR 122058Z AUTO 07012G19KT 10SM BKN150 BKN170 08/M02 A2972 RMK AO2 PK WND 08026/39 SLP072 T00751022 50012

Heure: 13:03 (22:03 UTC)


TAF: absent

Observations et prévisions météorologiques de plus de 4000 aéroports (messages METAR et TAF).

Les stations disponibles sont représentées par des disques jaunes et rouges sur la carte.

Passer la souris dessus pour voir le nom de la station.

Cliquer dessus pour voir les observations et prévisions météorologiques.

Pour changer de carte: cliquez sur les boutons verts avec une croix noire pour zoomer, sur le bouton vert avec un tiret pour effectuer un zoom arrière, ou sur les flèches vertes pour les cartes adjacentes.


METAR-TAF: